sensor_id;sensor_type;location;lat;lon;timestamp;P1;durP1;ratioP1;P2;durP2;ratioP2
47760;SDS011;33524;55.434;38.520;2023-01-28T00:02:11;18.58;;;9.45;;
47760;SDS011;33524;55.434;38.520;2023-01-28T00:04:40;20.23;;;9.07;;
47760;SDS011;33524;55.434;38.520;2023-01-28T00:07:08;17.23;;;10.85;;
47760;SDS011;33524;55.434;38.520;2023-01-28T00:09:36;18.27;;;9.65;;
47760;SDS011;33524;55.434;38.520;2023-01-28T00:12:05;18.52;;;8.40;;
47760;SDS011;33524;55.434;38.520;2023-01-28T00:14:33;17.12;;;8.40;;
47760;SDS011;33524;55.434;38.520;2023-01-28T00:17:03;14.93;;;8.25;;
47760;SDS011;33524;55.434;38.520;2023-01-28T00:19:32;19.45;;;8.57;;
47760;SDS011;33524;55.434;38.520;2023-01-28T00:22:00;19.30;;;10.20;;
47760;SDS011;33524;55.434;38.520;2023-01-28T00:24:28;16.27;;;9.13;;
47760;SDS011;33524;55.434;38.520;2023-01-28T00:26:57;24.52;;;9.25;;
47760;SDS011;33524;55.434;38.520;2023-01-28T00:29:25;18.30;;;9.73;;
47760;SDS011;33524;55.434;38.520;2023-01-28T00:31:53;19.42;;;8.55;;
47760;SDS011;33524;55.434;38.520;2023-01-28T00:34:21;16.52;;;9.38;;
47760;SDS011;33524;55.434;38.520;2023-01-28T00:36:49;21.55;;;10.48;;
47760;SDS011;33524;55.434;38.520;2023-01-28T00:39:24;16.55;;;9.43;;
47760;SDS011;33524;55.434;38.520;2023-01-28T00:41:53;18.42;;;9.57;;
47760;SDS011;33524;55.434;38.520;2023-01-28T00:44:23;15.50;;;9.73;;
47760;SDS011;33524;55.434;38.520;2023-01-28T00:46:51;20.50;;;10.88;;
47760;SDS011;33524;55.434;38.520;2023-01-28T00:49:21;24.92;;;12.32;;
47760;SDS011;33524;55.434;38.520;2023-01-28T00:51:49;21.12;;;12.48;;
47760;SDS011;33524;55.434;38.520;2023-01-28T00:54:17;24.95;;;11.57;;
47760;SDS011;33524;55.434;38.520;2023-01-28T00:56:45;23.52;;;12.57;;
47760;SDS011;33524;55.434;38.520;2023-01-28T00:59:13;19.08;;;10.57;;
47760;SDS011;33524;55.434;38.520;2023-01-28T01:01:41;27.35;;;12.43;;
47760;SDS011;33524;55.434;38.520;2023-01-28T01:04:10;28.30;;;13.95;;
47760;SDS011;33524;55.434;38.520;2023-01-28T01:06:39;22.65;;;11.02;;
47760;SDS011;33524;55.434;38.520;2023-01-28T01:09:11;21.50;;;10.63;;
47760;SDS011;33524;55.434;38.520;2023-01-28T01:11:42;24.87;;;11.63;;
47760;SDS011;33524;55.434;38.520;2023-01-28T01:14:10;19.05;;;10.25;;
47760;SDS011;33524;55.434;38.520;2023-01-28T01:16:39;25.77;;;12.80;;
47760;SDS011;33524;55.434;38.520;2023-01-28T01:19:07;23.50;;;12.30;;
47760;SDS011;33524;55.434;38.520;2023-01-28T01:21:39;21.90;;;10.93;;
47760;SDS011;33524;55.434;38.520;2023-01-28T01:24:07;22.70;;;11.43;;
47760;SDS011;33524;55.434;38.520;2023-01-28T01:26:38;21.67;;;10.82;;
47760;SDS011;33524;55.434;38.520;2023-01-28T01:29:06;31.50;;;12.18;;
47760;SDS011;33524;55.434;38.520;2023-01-28T01:31:36;21.08;;;11.00;;
47760;SDS011;33524;55.434;38.520;2023-01-28T01:34:07;24.63;;;12.98;;
47760;SDS011;33524;55.434;38.520;2023-01-28T01:36:36;23.77;;;10.98;;
47760;SDS011;33524;55.434;38.520;2023-01-28T01:39:04;22.30;;;11.12;;
47760;SDS011;33524;55.434;38.520;2023-01-28T01:41:32;18.85;;;10.93;;
47760;SDS011;33524;55.434;38.520;2023-01-28T01:44:01;20.88;;;11.10;;
47760;SDS011;33524;55.434;38.520;2023-01-28T01:46:37;21.15;;;10.57;;
47760;SDS011;33524;55.434;38.520;2023-01-28T01:49:18;21.35;;;10.60;;
47760;SDS011;33524;55.434;38.520;2023-01-28T01:51:55;26.80;;;11.73;;
47760;SDS011;33524;55.434;38.520;2023-01-28T01:54:31;23.10;;;9.80;;
47760;SDS011;33524;55.434;38.520;2023-01-28T01:57:04;22.10;;;11.45;;
47760;SDS011;33524;55.434;38.520;2023-01-28T01:59:36;17.05;;;9.15;;
47760;SDS011;33524;55.434;38.520;2023-01-28T02:02:06;27.02;;;12.98;;
47760;SDS011;33524;55.434;38.520;2023-01-28T02:04:40;21.60;;;9.93;;
47760;SDS011;33524;55.434;38.520;2023-01-28T02:07:14;16.77;;;9.73;;
47760;SDS011;33524;55.434;38.520;2023-01-28T02:09:46;17.10;;;10.32;;
47760;SDS011;33524;55.434;38.520;2023-01-28T02:12:18;17.25;;;9.55;;
47760;SDS011;33524;55.434;38.520;2023-01-28T02:14:51;18.02;;;9.48;;
47760;SDS011;33524;55.434;38.520;2023-01-28T02:17:22;22.33;;;11.15;;
47760;SDS011;33524;55.434;38.520;2023-01-28T02:20:01;19.50;;;10.60;;
47760;SDS011;33524;55.434;38.520;2023-01-28T02:28:51;17.70;;;10.15;;
47760;SDS011;33524;55.434;38.520;2023-01-28T02:31:52;19.05;;;10.13;;
47760;SDS011;33524;55.434;38.520;2023-01-28T02:34:37;23.08;;;11.18;;
47760;SDS011;33524;55.434;38.520;2023-01-28T02:39:50;18.05;;;9.45;;
47760;SDS011;33524;55.434;38.520;2023-01-28T02:44:56;21.92;;;9.05;;
47760;SDS011;33524;55.434;38.520;2023-01-28T02:47:28;17.23;;;9.45;;
47760;SDS011;33524;55.434;38.520;2023-01-28T02:50:15;14.80;;;8.65;;
47760;SDS011;33524;55.434;38.520;2023-01-28T02:59:10;19.55;;;10.10;;
47760;SDS011;33524;55.434;38.520;2023-01-28T03:02:32;15.52;;;8.88;;
47760;SDS011;33524;55.434;38.520;2023-01-28T03:05:21;21.00;;;8.80;;
47760;SDS011;33524;55.434;38.520;2023-01-28T03:07:53;18.62;;;9.38;;
47760;SDS011;33524;55.434;38.520;2023-01-28T03:10:21;18.48;;;9.75;;
47760;SDS011;33524;55.434;38.520;2023-01-28T03:12:54;20.37;;;11.03;;
47760;SDS011;33524;55.434;38.520;2023-01-28T03:15:46;18.37;;;10.10;;
47760;SDS011;33524;55.434;38.520;2023-01-28T03:21:25;14.55;;;7.18;;
47760;SDS011;33524;55.434;38.520;2023-01-28T03:24:27;19.30;;;9.27;;
47760;SDS011;33524;55.434;38.520;2023-01-28T03:27:18;19.67;;;10.02;;
47760;SDS011;33524;55.434;38.520;2023-01-28T03:30:21;18.45;;;9.65;;
47760;SDS011;33524;55.434;38.520;2023-01-28T03:33:14;17.83;;;8.55;;
47760;SDS011;33524;55.434;38.520;2023-01-28T03:36:02;14.55;;;8.20;;
47760;SDS011;33524;55.434;38.520;2023-01-28T03:38:50;14.27;;;7.60;;
47760;SDS011;33524;55.434;38.520;2023-01-28T03:41:23;16.20;;;8.13;;
47760;SDS011;33524;55.434;38.520;2023-01-28T03:43:52;15.38;;;7.97;;
47760;SDS011;33524;55.434;38.520;2023-01-28T03:46:21;15.95;;;6.95;;
47760;SDS011;33524;55.434;38.520;2023-01-28T03:48:49;13.88;;;6.80;;
47760;SDS011;33524;55.434;38.520;2023-01-28T03:51:17;12.85;;;7.37;;
47760;SDS011;33524;55.434;38.520;2023-01-28T03:53:46;14.20;;;7.07;;
47760;SDS011;33524;55.434;38.520;2023-01-28T03:56:14;11.88;;;6.57;;
47760;SDS011;33524;55.434;38.520;2023-01-28T03:58:44;11.48;;;6.95;;
47760;SDS011;33524;55.434;38.520;2023-01-28T04:01:20;12.23;;;6.97;;
47760;SDS011;33524;55.434;38.520;2023-01-28T04:03:49;12.88;;;7.00;;
47760;SDS011;33524;55.434;38.520;2023-01-28T04:06:17;11.40;;;5.70;;
47760;SDS011;33524;55.434;38.520;2023-01-28T04:08:46;17.10;;;8.20;;
47760;SDS011;33524;55.434;38.520;2023-01-28T04:11:20;13.18;;;6.15;;
47760;SDS011;33524;55.434;38.520;2023-01-28T04:13:55;9.93;;;6.18;;
47760;SDS011;33524;55.434;38.520;2023-01-28T04:16:23;12.45;;;5.97;;
47760;SDS011;33524;55.434;38.520;2023-01-28T04:18:52;14.80;;;6.85;;
47760;SDS011;33524;55.434;38.520;2023-01-28T04:21:20;12.15;;;6.15;;
47760;SDS011;33524;55.434;38.520;2023-01-28T04:23:49;12.57;;;6.68;;
47760;SDS011;33524;55.434;38.520;2023-01-28T04:26:17;11.23;;;5.93;;
47760;SDS011;33524;55.434;38.520;2023-01-28T04:28:45;11.52;;;5.72;;
47760;SDS011;33524;55.434;38.520;2023-01-28T04:31:14;12.35;;;6.05;;
47760;SDS011;33524;55.434;38.520;2023-01-28T04:33:42;12.95;;;7.22;;
47760;SDS011;33524;55.434;38.520;2023-01-28T04:36:10;14.55;;;7.90;;
47760;SDS011;33524;55.434;38.520;2023-01-28T04:38:39;12.90;;;6.82;;
47760;SDS011;33524;55.434;38.520;2023-01-28T04:41:10;13.98;;;6.90;;
47760;SDS011;33524;55.434;38.520;2023-01-28T04:43:41;12.27;;;7.07;;
47760;SDS011;33524;55.434;38.520;2023-01-28T04:46:15;11.43;;;5.53;;
47760;SDS011;33524;55.434;38.520;2023-01-28T04:48:45;10.15;;;6.40;;
47760;SDS011;33524;55.434;38.520;2023-01-28T04:51:14;13.77;;;7.70;;
47760;SDS011;33524;55.434;38.520;2023-01-28T04:53:43;9.63;;;5.57;;
47760;SDS011;33524;55.434;38.520;2023-01-28T04:56:13;12.10;;;6.28;;
47760;SDS011;33524;55.434;38.520;2023-01-28T04:58:45;10.52;;;6.40;;
47760;SDS011;33524;55.434;38.520;2023-01-28T05:01:13;11.40;;;6.55;;
47760;SDS011;33524;55.434;38.520;2023-01-28T05:03:41;12.02;;;6.72;;
47760;SDS011;33524;55.434;38.520;2023-01-28T05:06:10;13.27;;;6.30;;
47760;SDS011;33524;55.434;38.520;2023-01-28T05:08:38;10.48;;;5.65;;
47760;SDS011;33524;55.434;38.520;2023-01-28T05:11:07;9.20;;;6.03;;
47760;SDS011;33524;55.434;38.520;2023-01-28T05:13:35;11.82;;;6.18;;
47760;SDS011;33524;55.434;38.520;2023-01-28T05:16:03;12.77;;;7.40;;
47760;SDS011;33524;55.434;38.520;2023-01-28T05:18:32;12.82;;;7.85;;
47760;SDS011;33524;55.434;38.520;2023-01-28T05:21:03;9.57;;;4.62;;
47760;SDS011;33524;55.434;38.520;2023-01-28T05:23:32;12.17;;;6.53;;
47760;SDS011;33524;55.434;38.520;2023-01-28T05:26:00;14.45;;;6.32;;
47760;SDS011;33524;55.434;38.520;2023-01-28T05:28:28;9.32;;;5.68;;
47760;SDS011;33524;55.434;38.520;2023-01-28T05:31:01;14.15;;;7.40;;
47760;SDS011;33524;55.434;38.520;2023-01-28T05:33:33;15.05;;;6.93;;
47760;SDS011;33524;55.434;38.520;2023-01-28T05:36:02;15.80;;;8.15;;
47760;SDS011;33524;55.434;38.520;2023-01-28T05:38:31;18.05;;;8.32;;
47760;SDS011;33524;55.434;38.520;2023-01-28T05:40:59;14.63;;;6.87;;
47760;SDS011;33524;55.434;38.520;2023-01-28T05:43:27;18.67;;;10.52;;
47760;SDS011;33524;55.434;38.520;2023-01-28T05:45:58;15.32;;;8.15;;
47760;SDS011;33524;55.434;38.520;2023-01-28T05:48:26;10.88;;;6.25;;
47760;SDS011;33524;55.434;38.520;2023-01-28T05:50:54;12.70;;;6.90;;
47760;SDS011;33524;55.434;38.520;2023-01-28T05:53:24;13.62;;;7.12;;
47760;SDS011;33524;55.434;38.520;2023-01-28T05:55:52;14.82;;;8.27;;
47760;SDS011;33524;55.434;38.520;2023-01-28T05:58:21;15.07;;;7.05;;
47760;SDS011;33524;55.434;38.520;2023-01-28T06:00:53;17.90;;;9.82;;
47760;SDS011;33524;55.434;38.520;2023-01-28T06:03:23;18.02;;;8.40;;
47760;SDS011;33524;55.434;38.520;2023-01-28T06:05:51;15.43;;;7.25;;
47760;SDS011;33524;55.434;38.520;2023-01-28T06:08:20;15.38;;;7.90;;
47760;SDS011;33524;55.434;38.520;2023-01-28T06:10:51;10.98;;;6.12;;
47760;SDS011;33524;55.434;38.520;2023-01-28T06:13:20;11.57;;;7.25;;
47760;SDS011;33524;55.434;38.520;2023-01-28T06:15:51;13.00;;;7.82;;
47760;SDS011;33524;55.434;38.520;2023-01-28T06:18:20;12.80;;;8.15;;
47760;SDS011;33524;55.434;38.520;2023-01-28T06:20:49;13.98;;;7.15;;
47760;SDS011;33524;55.434;38.520;2023-01-28T06:23:23;13.20;;;6.78;;
47760;SDS011;33524;55.434;38.520;2023-01-28T06:25:52;13.95;;;7.12;;
47760;SDS011;33524;55.434;38.520;2023-01-28T06:28:23;12.77;;;6.87;;
47760;SDS011;33524;55.434;38.520;2023-01-28T06:30:51;15.32;;;7.45;;
47760;SDS011;33524;55.434;38.520;2023-01-28T06:33:23;11.43;;;6.45;;
47760;SDS011;33524;55.434;38.520;2023-01-28T06:35:51;15.50;;;7.50;;
47760;SDS011;33524;55.434;38.520;2023-01-28T06:38:19;15.98;;;8.43;;
47760;SDS011;33524;55.434;38.520;2023-01-28T06:40:53;14.20;;;7.18;;
47760;SDS011;33524;55.434;38.520;2023-01-28T06:43:22;11.35;;;6.87;;
47760;SDS011;33524;55.434;38.520;2023-01-28T06:45:59;14.07;;;7.03;;
47760;SDS011;33524;55.434;38.520;2023-01-28T06:48:29;13.88;;;7.80;;
47760;SDS011;33524;55.434;38.520;2023-01-28T06:50:57;13.82;;;7.25;;
47760;SDS011;33524;55.434;38.520;2023-01-28T06:53:25;13.50;;;7.47;;
47760;SDS011;33524;55.434;38.520;2023-01-28T06:55:56;16.00;;;8.27;;
47760;SDS011;33524;55.434;38.520;2023-01-28T06:58:24;13.88;;;8.35;;
47760;SDS011;33524;55.434;38.520;2023-01-28T07:00:52;14.07;;;7.68;;
47760;SDS011;33524;55.434;38.520;2023-01-28T07:03:22;17.95;;;10.63;;
47760;SDS011;33524;55.434;38.520;2023-01-28T07:05:51;14.68;;;7.47;;
47760;SDS011;33524;55.434;38.520;2023-01-28T07:08:19;11.48;;;6.03;;
47760;SDS011;33524;55.434;38.520;2023-01-28T07:10:48;14.20;;;7.87;;
47760;SDS011;33524;55.434;38.520;2023-01-28T07:13:16;11.18;;;6.87;;
47760;SDS011;33524;55.434;38.520;2023-01-28T07:15:44;13.57;;;8.20;;
47760;SDS011;33524;55.434;38.520;2023-01-28T07:18:12;11.63;;;6.85;;
47760;SDS011;33524;55.434;38.520;2023-01-28T07:20:41;13.02;;;7.05;;
47760;SDS011;33524;55.434;38.520;2023-01-28T07:23:09;12.73;;;7.45;;
47760;SDS011;33524;55.434;38.520;2023-01-28T07:25:39;15.27;;;7.95;;
47760;SDS011;33524;55.434;38.520;2023-01-28T07:28:09;12.82;;;7.25;;
47760;SDS011;33524;55.434;38.520;2023-01-28T07:30:40;13.23;;;7.93;;
47760;SDS011;33524;55.434;38.520;2023-01-28T07:33:10;17.02;;;9.45;;
47760;SDS011;33524;55.434;38.520;2023-01-28T07:35:39;14.63;;;8.02;;
47760;SDS011;33524;55.434;38.520;2023-01-28T07:38:08;14.00;;;6.68;;
47760;SDS011;33524;55.434;38.520;2023-01-28T07:40:37;14.55;;;8.00;;
47760;SDS011;33524;55.434;38.520;2023-01-28T07:43:07;16.35;;;8.35;;
47760;SDS011;33524;55.434;38.520;2023-01-28T07:45:36;11.88;;;7.00;;
47760;SDS011;33524;55.434;38.520;2023-01-28T07:48:05;21.52;;;9.27;;
47760;SDS011;33524;55.434;38.520;2023-01-28T07:50:35;15.13;;;7.82;;
47760;SDS011;33524;55.434;38.520;2023-01-28T07:53:05;15.73;;;7.72;;
47760;SDS011;33524;55.434;38.520;2023-01-28T07:55:36;15.73;;;8.52;;
47760;SDS011;33524;55.434;38.520;2023-01-28T07:58:06;17.25;;;8.95;;
47760;SDS011;33524;55.434;38.520;2023-01-28T08:00:36;17.08;;;7.47;;
47760;SDS011;33524;55.434;38.520;2023-01-28T08:03:13;17.67;;;8.20;;
47760;SDS011;33524;55.434;38.520;2023-01-28T08:05:46;17.08;;;7.78;;
47760;SDS011;33524;55.434;38.520;2023-01-28T08:08:16;15.23;;;8.05;;
47760;SDS011;33524;55.434;38.520;2023-01-28T08:10:46;13.68;;;6.78;;
47760;SDS011;33524;55.434;38.520;2023-01-28T08:13:16;19.37;;;9.40;;
47760;SDS011;33524;55.434;38.520;2023-01-28T08:15:46;14.50;;;8.77;;
47760;SDS011;33524;55.434;38.520;2023-01-28T08:18:15;16.02;;;7.80;;
47760;SDS011;33524;55.434;38.520;2023-01-28T08:20:44;18.80;;;9.32;;
47760;SDS011;33524;55.434;38.520;2023-01-28T08:23:15;13.82;;;7.45;;
47760;SDS011;33524;55.434;38.520;2023-01-28T08:25:46;14.40;;;7.82;;
47760;SDS011;33524;55.434;38.520;2023-01-28T08:28:15;16.77;;;7.95;;
47760;SDS011;33524;55.434;38.520;2023-01-28T08:30:44;17.27;;;7.68;;
47760;SDS011;33524;55.434;38.520;2023-01-28T08:33:14;16.85;;;8.07;;
47760;SDS011;33524;55.434;38.520;2023-01-28T08:35:48;13.10;;;7.30;;
47760;SDS011;33524;55.434;38.520;2023-01-28T08:38:18;12.55;;;6.47;;
47760;SDS011;33524;55.434;38.520;2023-01-28T08:40:51;15.65;;;7.82;;
47760;SDS011;33524;55.434;38.520;2023-01-28T08:43:22;16.30;;;8.13;;
47760;SDS011;33524;55.434;38.520;2023-01-28T08:45:51;14.10;;;6.90;;
47760;SDS011;33524;55.434;38.520;2023-01-28T08:48:20;12.37;;;7.30;;
47760;SDS011;33524;55.434;38.520;2023-01-28T08:50:48;13.27;;;8.43;;
47760;SDS011;33524;55.434;38.520;2023-01-28T08:53:19;9.07;;;5.70;;
47760;SDS011;33524;55.434;38.520;2023-01-28T08:55:50;14.95;;;7.22;;
47760;SDS011;33524;55.434;38.520;2023-01-28T08:58:21;11.63;;;6.28;;
47760;SDS011;33524;55.434;38.520;2023-01-28T09:00:52;11.63;;;6.82;;
47760;SDS011;33524;55.434;38.520;2023-01-28T09:03:22;10.85;;;6.03;;
47760;SDS011;33524;55.434;38.520;2023-01-28T09:05:51;10.55;;;5.75;;
47760;SDS011;33524;55.434;38.520;2023-01-28T09:08:22;12.20;;;6.15;;
47760;SDS011;33524;55.434;38.520;2023-01-28T09:10:56;13.20;;;6.78;;
47760;SDS011;33524;55.434;38.520;2023-01-28T09:13:29;14.15;;;6.95;;
47760;SDS011;33524;55.434;38.520;2023-01-28T09:15:58;10.02;;;5.80;;
47760;SDS011;33524;55.434;38.520;2023-01-28T09:18:28;12.02;;;6.45;;
47760;SDS011;33524;55.434;38.520;2023-01-28T09:20:58;11.27;;;6.65;;
47760;SDS011;33524;55.434;38.520;2023-01-28T09:23:27;12.13;;;6.00;;
47760;SDS011;33524;55.434;38.520;2023-01-28T09:25:59;11.57;;;5.32;;
47760;SDS011;33524;55.434;38.520;2023-01-28T09:28:29;10.00;;;5.20;;
47760;SDS011;33524;55.434;38.520;2023-01-28T09:31:03;13.90;;;6.62;;
47760;SDS011;33524;55.434;38.520;2023-01-28T09:33:38;12.10;;;5.65;;
47760;SDS011;33524;55.434;38.520;2023-01-28T09:36:11;13.75;;;6.47;;
47760;SDS011;33524;55.434;38.520;2023-01-28T09:38:46;12.18;;;5.30;;
47760;SDS011;33524;55.434;38.520;2023-01-28T09:41:36;13.13;;;6.45;;
47760;SDS011;33524;55.434;38.520;2023-01-28T09:47:24;15.40;;;7.12;;
47760;SDS011;33524;55.434;38.520;2023-01-28T09:50:11;12.98;;;6.72;;
47760;SDS011;33524;55.434;38.520;2023-01-28T09:52:49;10.55;;;5.82;;
47760;SDS011;33524;55.434;38.520;2023-01-28T09:55:30;14.55;;;6.18;;
47760;SDS011;33524;55.434;38.520;2023-01-28T09:58:03;12.52;;;6.22;;
47760;SDS011;33524;55.434;38.520;2023-01-28T10:09:18;20.55;;;11.90;;
47760;SDS011;33524;55.434;38.520;2023-01-28T10:12:33;16.58;;;8.38;;
47760;SDS011;33524;55.434;38.520;2023-01-28T10:21:15;11.98;;;6.03;;
47760;SDS011;33524;55.434;38.520;2023-01-28T10:24:22;14.70;;;7.40;;
47760;SDS011;33524;55.434;38.520;2023-01-28T10:26:54;13.88;;;6.40;;
47760;SDS011;33524;55.434;38.520;2023-01-28T10:29:30;11.65;;;6.32;;
47760;SDS011;33524;55.434;38.520;2023-01-28T10:32:49;15.82;;;6.32;;
47760;SDS011;33524;55.434;38.520;2023-01-28T10:35:01;11.90;;;7.10;;
47760;SDS011;33524;55.434;38.520;2023-01-28T10:37:34;11.27;;;6.15;;
47760;SDS011;33524;55.434;38.520;2023-01-28T10:40:05;10.57;;;6.45;;
47760;SDS011;33524;55.434;38.520;2023-01-28T10:42:44;12.98;;;6.10;;
47760;SDS011;33524;55.434;38.520;2023-01-28T10:45:17;9.55;;;5.35;;
47760;SDS011;33524;55.434;38.520;2023-01-28T10:50:47;10.43;;;5.12;;
47760;SDS011;33524;55.434;38.520;2023-01-28T10:53:32;11.02;;;6.32;;
47760;SDS011;33524;55.434;38.520;2023-01-28T10:56:14;12.63;;;5.75;;
47760;SDS011;33524;55.434;38.520;2023-01-28T10:58:46;12.32;;;5.47;;
47760;SDS011;33524;55.434;38.520;2023-01-28T11:01:43;10.40;;;5.55;;
47760;SDS011;33524;55.434;38.520;2023-01-28T11:09:53;12.85;;;5.57;;
47760;SDS011;33524;55.434;38.520;2023-01-28T11:12:24;12.00;;;6.43;;
47760;SDS011;33524;55.434;38.520;2023-01-28T11:14:58;11.93;;;5.90;;
47760;SDS011;33524;55.434;38.520;2023-01-28T11:17:31;11.43;;;5.05;;
47760;SDS011;33524;55.434;38.520;2023-01-28T11:20:11;9.95;;;5.25;;
47760;SDS011;33524;55.434;38.520;2023-01-28T11:25:33;10.88;;;6.03;;
47760;SDS011;33524;55.434;38.520;2023-01-28T11:28:07;14.45;;;8.05;;
47760;SDS011;33524;55.434;38.520;2023-01-28T11:30:49;11.15;;;5.75;;
47760;SDS011;33524;55.434;38.520;2023-01-28T11:33:30;11.68;;;6.28;;
47760;SDS011;33524;55.434;38.520;2023-01-28T11:36:21;10.20;;;5.82;;
47760;SDS011;33524;55.434;38.520;2023-01-28T11:38:52;12.88;;;6.20;;
47760;SDS011;33524;55.434;38.520;2023-01-28T11:44:22;12.00;;;7.05;;
47760;SDS011;33524;55.434;38.520;2023-01-28T11:49:47;12.75;;;6.15;;
47760;SDS011;33524;55.434;38.520;2023-01-28T11:58:44;11.63;;;5.87;;
47760;SDS011;33524;55.434;38.520;2023-01-28T12:01:23;14.95;;;5.80;;
47760;SDS011;33524;55.434;38.520;2023-01-28T12:04:22;11.25;;;6.12;;
47760;SDS011;33524;55.434;38.520;2023-01-28T12:10:08;13.32;;;7.30;;
47760;SDS011;33524;55.434;38.520;2023-01-28T12:15:48;10.38;;;6.15;;
47760;SDS011;33524;55.434;38.520;2023-01-28T12:38:26;15.77;;;6.97;;
47760;SDS011;33524;55.434;38.520;2023-01-28T12:41:24;10.93;;;7.00;;
47760;SDS011;33524;55.434;38.520;2023-01-28T12:44:01;15.15;;;6.70;;
47760;SDS011;33524;55.434;38.520;2023-01-28T12:46:49;17.12;;;7.57;;
47760;SDS011;33524;55.434;38.520;2023-01-28T12:49:24;9.82;;;5.35;;
47760;SDS011;33524;55.434;38.520;2023-01-28T12:52:18;14.40;;;6.37;;
47760;SDS011;33524;55.434;38.520;2023-01-28T12:58:10;11.15;;;6.87;;
47760;SDS011;33524;55.434;38.520;2023-01-28T13:07:03;45.53;;;23.85;;
47760;SDS011;33524;55.434;38.520;2023-01-28T13:09:17;32.58;;;18.67;;
47760;SDS011;33524;55.434;38.520;2023-01-28T13:11:55;27.25;;;14.35;;
47760;SDS011;33524;55.434;38.520;2023-01-28T13:14:28;12.80;;;8.02;;
47760;SDS011;33524;55.434;38.520;2023-01-28T13:17:09;16.95;;;7.32;;
47760;SDS011;33524;55.434;38.520;2023-01-28T13:19:43;12.95;;;7.72;;
47760;SDS011;33524;55.434;38.520;2023-01-28T13:22:28;13.13;;;7.12;;
47760;SDS011;33524;55.434;38.520;2023-01-28T13:25:24;9.85;;;5.75;;
47760;SDS011;33524;55.434;38.520;2023-01-28T13:28:21;16.70;;;7.07;;
47760;SDS011;33524;55.434;38.520;2023-01-28T13:31:02;12.27;;;6.60;;
47760;SDS011;33524;55.434;38.520;2023-01-28T13:33:38;16.00;;;7.20;;
47760;SDS011;33524;55.434;38.520;2023-01-28T13:36:26;9.57;;;5.55;;
47760;SDS011;33524;55.434;38.520;2023-01-28T13:39:05;13.32;;;7.37;;
47760;SDS011;33524;55.434;38.520;2023-01-28T13:41:48;17.08;;;9.63;;
47760;SDS011;33524;55.434;38.520;2023-01-28T13:44:27;15.30;;;9.20;;
47760;SDS011;33524;55.434;38.520;2023-01-28T13:49:38;15.82;;;8.35;;
47760;SDS011;33524;55.434;38.520;2023-01-28T13:52:35;17.92;;;7.68;;
47760;SDS011;33524;55.434;38.520;2023-01-28T13:55:20;17.00;;;8.35;;
47760;SDS011;33524;55.434;38.520;2023-01-28T14:18:28;13.02;;;7.18;;
47760;SDS011;33524;55.434;38.520;2023-01-28T14:21:07;15.57;;;7.95;;
47760;SDS011;33524;55.434;38.520;2023-01-28T14:23:50;11.82;;;6.05;;
47760;SDS011;33524;55.434;38.520;2023-01-28T14:26:30;17.17;;;8.15;;
47760;SDS011;33524;55.434;38.520;2023-01-28T14:31:48;16.37;;;7.25;;
47760;SDS011;33524;55.434;38.520;2023-01-28T14:34:29;14.23;;;7.30;;
47760;SDS011;33524;55.434;38.520;2023-01-28T14:37:16;14.35;;;7.25;;
47760;SDS011;33524;55.434;38.520;2023-01-28T14:39:51;12.73;;;8.20;;
47760;SDS011;33524;55.434;38.520;2023-01-28T14:42:29;10.68;;;6.70;;
47760;SDS011;33524;55.434;38.520;2023-01-28T14:45:11;11.98;;;6.40;;
47760;SDS011;33524;55.434;38.520;2023-01-28T14:57:13;14.63;;;7.47;;
47760;SDS011;33524;55.434;38.520;2023-01-28T14:59:54;11.90;;;7.35;;
47760;SDS011;33524;55.434;38.520;2023-01-28T15:02:29;16.75;;;7.32;;
47760;SDS011;33524;55.434;38.520;2023-01-28T15:05:25;14.40;;;7.45;;
47760;SDS011;33524;55.434;38.520;2023-01-28T15:08:00;11.90;;;6.40;;
47760;SDS011;33524;55.434;38.520;2023-01-28T15:10:35;15.18;;;7.62;;
47760;SDS011;33524;55.434;38.520;2023-01-28T15:13:07;17.35;;;8.02;;
47760;SDS011;33524;55.434;38.520;2023-01-28T15:15:48;15.75;;;6.87;;
47760;SDS011;33524;55.434;38.520;2023-01-28T15:21:04;15.27;;;6.97;;
47760;SDS011;33524;55.434;38.520;2023-01-28T15:23:40;13.43;;;7.40;;
47760;SDS011;33524;55.434;38.520;2023-01-28T15:26:16;16.87;;;8.07;;
47760;SDS011;33524;55.434;38.520;2023-01-28T15:28:50;17.30;;;7.37;;
47760;SDS011;33524;55.434;38.520;2023-01-28T15:31:32;12.70;;;6.95;;
47760;SDS011;33524;55.434;38.520;2023-01-28T15:34:11;14.80;;;7.28;;
47760;SDS011;33524;55.434;38.520;2023-01-28T15:36:44;16.75;;;7.85;;
47760;SDS011;33524;55.434;38.520;2023-01-28T15:39:18;20.33;;;8.73;;
47760;SDS011;33524;55.434;38.520;2023-01-28T15:44:42;18.25;;;9.10;;
47760;SDS011;33524;55.434;38.520;2023-01-28T15:47:24;14.73;;;7.10;;
47760;SDS011;33524;55.434;38.520;2023-01-28T15:50:03;16.65;;;7.65;;
47760;SDS011;33524;55.434;38.520;2023-01-28T15:52:38;11.75;;;7.00;;
47760;SDS011;33524;55.434;38.520;2023-01-28T15:57:55;10.10;;;6.10;;
47760;SDS011;33524;55.434;38.520;2023-01-28T16:00:25;16.33;;;8.27;;
47760;SDS011;33524;55.434;38.520;2023-01-28T16:03:09;13.20;;;7.68;;
47760;SDS011;33524;55.434;38.520;2023-01-28T16:05:54;11.15;;;6.85;;
47760;SDS011;33524;55.434;38.520;2023-01-28T16:11:34;11.95;;;7.05;;
47760;SDS011;33524;55.434;38.520;2023-01-28T16:14:56;13.88;;;7.43;;
47760;SDS011;33524;55.434;38.520;2023-01-28T16:17:36;15.52;;;7.78;;
47760;SDS011;33524;55.434;38.520;2023-01-28T16:20:25;13.93;;;7.82;;
47760;SDS011;33524;55.434;38.520;2023-01-28T16:22:58;13.25;;;8.13;;
47760;SDS011;33524;55.434;38.520;2023-01-28T16:25:34;13.95;;;8.43;;
47760;SDS011;33524;55.434;38.520;2023-01-28T16:28:18;16.30;;;8.37;;
47760;SDS011;33524;55.434;38.520;2023-01-28T16:30:50;12.23;;;7.68;;
47760;SDS011;33524;55.434;38.520;2023-01-28T16:33:22;13.90;;;7.78;;
47760;SDS011;33524;55.434;38.520;2023-01-28T16:35:52;15.60;;;8.82;;
47760;SDS011;33524;55.434;38.520;2023-01-28T16:38:36;14.77;;;9.38;;
47760;SDS011;33524;55.434;38.520;2023-01-28T16:41:13;16.58;;;8.23;;
47760;SDS011;33524;55.434;38.520;2023-01-28T16:43:50;18.77;;;8.82;;
47760;SDS011;33524;55.434;38.520;2023-01-28T16:46:19;13.13;;;8.88;;
47760;SDS011;33524;55.434;38.520;2023-01-28T16:49:01;16.73;;;7.93;;
47760;SDS011;33524;55.434;38.520;2023-01-28T16:51:31;15.60;;;8.35;;
47760;SDS011;33524;55.434;38.520;2023-01-28T16:54:11;17.02;;;7.82;;
47760;SDS011;33524;55.434;38.520;2023-01-28T16:56:49;17.92;;;9.85;;
47760;SDS011;33524;55.434;38.520;2023-01-28T16:59:23;15.18;;;9.55;;
47760;SDS011;33524;55.434;38.520;2023-01-28T17:01:56;16.92;;;8.50;;
47760;SDS011;33524;55.434;38.520;2023-01-28T17:04:26;13.75;;;9.27;;
47760;SDS011;33524;55.434;38.520;2023-01-28T17:06:57;14.68;;;8.30;;
47760;SDS011;33524;55.434;38.520;2023-01-28T17:09:26;17.45;;;8.75;;
47760;SDS011;33524;55.434;38.520;2023-01-28T17:12:02;18.02;;;9.65;;
47760;SDS011;33524;55.434;38.520;2023-01-28T17:14:42;16.20;;;9.73;;
47760;SDS011;33524;55.434;38.520;2023-01-28T17:17:14;16.85;;;9.23;;
47760;SDS011;33524;55.434;38.520;2023-01-28T17:19:44;18.00;;;9.32;;
47760;SDS011;33524;55.434;38.520;2023-01-28T17:22:14;18.77;;;9.90;;
47760;SDS011;33524;55.434;38.520;2023-01-28T17:24:48;18.58;;;10.68;;
47760;SDS011;33524;55.434;38.520;2023-01-28T17:27:18;21.45;;;10.65;;